Aviation Digital Data Service (ADDS)

Output produced by METARs form (1102 UTC 21 January 2020)
found at http://aviationweather.gov/metar/data/
 
LSZH 211050Z VRB03KT 9999 BKN015 01/M03 Q1040 NOSIG
LSZH 211020Z VRB03KT 9999 SCT013 M01/M04 Q1040 TEMPO BKN014
TAF LSZH 210825Z 2109/2215 VRB03KT 7000 FEW012 TX02/2114Z TNM04/2206Z TX02/2214Z

     PROB40 2112/2117 CAVOK 
     BECMG 2120/2123 4000 BR 
     BECMG 2123/2202 1500 BCFG SCT005 
     PROB40 2202/2208 0500 FZFG VV002 
     BECMG 2208/2211 7000
       
LFSB 211030Z 10008KT 8000 FEW046 02/M02 Q1040 NOSIG
TAF LFSB 210500Z 2106/2206 VRB03KT 8000 NSC 
     PROB30 
     TEMPO 2106/2108 4000 MIFG 
     BECMG 2108/2110 35005KT CAVOK 
     BECMG 2120/2122 4000 BR BKN002 
     PROB40 2123/2206 0200 FZFG VV///
       
LSZG 211050Z 08004KT 7000 SCT012 M01/M03 Q1040 NOSIG
LSZG 211020Z 08004KT 7000 BKN011 M01/M03 Q1040 NOSIG
TAF LSZG 210825Z 2109/2118 VRB02KT 4500 BR SCT013 
     BECMG 2111/2114 CAVOK
       
LSZB 211050Z VRB02KT CAVOK M00/M05 Q1038 NOSIG
LSZB 211020Z VRB02KT CAVOK M01/M04 Q1039 NOSIG
TAF LSZB 210825Z 2109/2118 VRB03KT CAVOK
       
LSGG 211050Z 07005KT CAVOK 02/M02 Q1039 NOSIG
LSGG 211020Z 10007KT 9999 FEW015 02/M02 Q1039 NOSIG
TAF LSGG 210825Z 2109/2215 VRB03KT 9999 SCT014 TX03/2115Z TNM02/2206Z TX02/2215Z

     BECMG 2110/2113 CAVOK 
     PROB30 2202/2209 BKN015
       
LSZR 211050Z 28005KT 9999 BKN013 00/M02 Q1040 NOSIG RMK F
LSZR 211020Z 28005KT 9999 BKN013 00/M02 Q1040 NOSIG RMK F
TAF AMD LSZR 211036Z 2110/2118 VRB03KT 9999 SCT013 
     TEMPO 2110/2113 BKN013 
     PROB40 2114/2117 CAVOK
       
LSGS 211050Z 09006KT CAVOK 04/M08 Q1039
LSGS 211020Z 11004KT CAVOK 02/M07 Q1039
TAF LSGS 210825Z 2109/2118 VRB03KT CAVOK
       
LSZA 211050Z VRB01KT CAVOK 04/M06 Q1042 NOSIG
LSZA 211020Z VRB01KT CAVOK 03/M06 Q1042 NOSIG
TAF LSZA 210825Z 2109/2118 VRB03KT CAVOK
       
EDNY 211050Z 03004KT 9999 BKN013 M01/M04 Q1040
EDNY 211020Z VRB04KT 9999 SCT012 M01/M04 Q1040
TAF AMD EDNY 210758Z 2107/2206 03003KT 4000 BR NSC 
     BECMG 2108/2110 CAVOK 
     PROB40 
     TEMPO 2123/2206 3000 BR BKN004
       
EDDS 211050Z 17004KT 140V210 9999 SCT012 01/M03 Q1040 TEMPO BKN012
EDDS 211020Z 15004KT 9999 BKN012 00/M03 Q1040 BECMG SCT012
TAF AMD EDDS 210831Z 2108/2206 VRB03KT 9999 BKN014 
     BECMG 2109/2111 SCT015 
     TEMPO 2200/2206 3000 BR BKN008 
     PROB30 
     TEMPO 2202/2206 0800 FZFG OVC001
       
LOWI 211050Z VRB01KT CAVOK M01/M07 Q1041 R08/19//95 NOSIG
LOWI 211020Z VRB01KT CAVOK M01/M07 Q1041 R08/19//95 NOSIG
TAF LOWI 210515Z 2106/2206 VRB02KT CAVOK TX02/2114Z TNM08/2106Z
       
EDDM 211050Z 07006KT 040V100 9999 BKN008 M02/M04 Q1041 NOSIG
EDDM 211020Z 13003KT 100V190 9999 BKN011 M01/M04 Q1041 NOSIG
TAF AMD EDDM 210907Z 2109/2212 09005KT 9000 OVC007 
     TEMPO 2109/2118 BKN010 
     BECMG 2114/2116 VRB03KT 
     TEMPO 2122/2207 3500 BR BKN004 
     BECMG 2210/2212 SCT010
       
LFMD 211030Z AUTO 08006KT 360V160 CAVOK 14/01 Q1036 BECMG 08015G25KT
TAF AMD LFMD 211010Z 2110/2209 08015G25KT 9999 OVC088 
     TEMPO 2110/2111 08005KT 
     TEMPO 2122/2205 04005KT
       
LFLL 211030Z VRB03KT CAVOK 02/M02 Q1039 NOSIG
TAF LFLL 210500Z 2106/2212 VRB02KT CAVOK 
     PROB30 
     TEMPO 2106/2108 4500 BR 
     PROB30 2204/2209 4000 BR
       
LIMC 211050Z 34003KT 290V020 CAVOK 07/M06 Q1042 NOSIG
LIMC 211020Z 34003KT 300V020 CAVOK 06/M05 Q1042 NOSIG
TAF LIMC 210500Z 2106/2212 VRB05KT CAVOK
       
LFPB 211030Z AUTO 06004KT 030V090 CAVOK 02/M01 Q1042 NOSIG
TAF LFPB 210500Z 2106/2206 04008KT 8000 NSC 
     PROB30 2106/2109 3000 BR 
     BECMG 2203/2205 4000 BR BKN004
       
LIPZ 211050Z 01005KT 340V050 CAVOK 08/M02 Q1042 NOSIG
LIPZ 211020Z 36005KT CAVOK 07/M02 Q1043 NOSIG
TAF LIPZ 210500Z 2106/2212 01010KT CAVOK 
     BECMG 2210/2212 27005KT